Time;durP1;ratioP1;P1;durP2;ratioP2;P2;SDS_P1;SDS_P2;PMS_P1;PMS_P2;Temp;Humidity;BMP_temperature;BMP_pressure;BME280_temperature;BME280_humidity;BME280_pressure;Samples;Min_cycle;Max_cycle;Signal;HPM_P1;HPM_P2
2022/06/25 00:02:23;;;;;;;0.60;0.30;;;;;;;18.13;100.00;99786.06;5020341;28;20523;-81
2022/06/25 00:07:35;;;;;;;0.50;0.20;;;;;;;18.06;100.00;99798.19;5042546;28;20483;-80
2022/06/25 00:10:02;;;;;;;0.50;0.20;;;;;;;18.06;100.00;99796.38;5039618;28;20461;-81
2022/06/25 00:12:32;;;;;;;0.50;0.20;;;;;;;18.20;100.00;99799.94;5022789;28;20531;-81
2022/06/25 00:15:01;;;;;;;0.50;0.20;;;;;;;18.17;100.00;99798.34;5026980;28;20478;-81
2022/06/25 00:17:27;;;;;;;0.50;0.20;;;;;;;18.03;100.00;99801.97;5041925;28;20441;-81
2022/06/25 00:19:54;;;;;;;0.50;0.20;;;;;;;18.17;100.00;99803.72;5034294;28;20543;-82
2022/06/25 00:22:21;;;;;;;0.50;0.20;;;;;;;18.09;100.00;99805.19;5033391;28;20462;-82
2022/06/25 00:24:47;;;;;;;0.50;0.20;;;;;;;17.92;100.00;99798.25;5045054;28;21044;-80
2022/06/25 00:27:14;;;;;;;0.50;0.20;;;;;;;17.91;100.00;99815.38;5036610;28;20451;-80
2022/06/25 00:29:40;;;;;;;0.50;0.20;;;;;;;17.97;100.00;99809.59;5035712;28;20587;-81
2022/06/25 00:32:09;;;;;;;0.50;0.20;;;;;;;18.02;100.00;99810.13;5034483;28;20546;-81
2022/06/25 00:34:38;;;;;;;0.50;0.20;;;;;;;17.96;100.00;99813.25;5038344;28;20455;-81
2022/06/25 00:37:06;;;;;;;0.50;0.20;;;;;;;18.02;100.00;99805.63;5039656;28;20538;-80
2022/06/25 00:39:33;;;;;;;0.50;0.20;;;;;;;18.20;100.00;99816.09;5048592;28;20447;-80
2022/06/25 00:42:00;;;;;;;0.50;0.20;;;;;;;18.24;100.00;99821.19;5054370;28;20494;-81
2022/06/25 00:44:30;;;;;;;0.50;0.20;;;;;;;18.32;100.00;99826.03;5027186;28;20452;-81
2022/06/25 00:46:57;;;;;;;0.50;0.20;;;;;;;18.21;100.00;99829.44;5041101;28;20452;-81
2022/06/25 00:49:24;;;;;;;0.50;0.20;;;;;;;18.44;100.00;99822.50;5047301;28;20491;-81
2022/06/25 00:51:51;;;;;;;0.50;0.20;;;;;;;18.34;100.00;99824.97;5037263;28;20534;-81
2022/06/25 00:54:20;;;;;;;0.50;0.20;;;;;;;18.33;100.00;99823.22;5026850;28;20451;-81
2022/06/25 00:56:50;;;;;;;0.50;0.20;;;;;;;18.31;100.00;99829.69;5035239;28;20479;-81
2022/06/25 00:59:26;;;;;;;0.50;0.20;;;;;;;18.46;100.00;99819.72;5041975;28;20448;-81
2022/06/25 01:01:53;;;;;;;0.50;0.20;;;;;;;18.44;100.00;99827.88;5033702;28;20454;-82
2022/06/25 01:04:20;;;;;;;0.50;0.20;;;;;;;18.41;100.00;99833.50;5037785;28;20451;-81
2022/06/25 01:06:46;;;;;;;0.50;0.20;;;;;;;18.33;100.00;99834.00;5038319;28;20467;-81
2022/06/25 01:09:13;;;;;;;0.50;0.20;;;;;;;18.19;100.00;99830.50;5037833;28;20935;-80
2022/06/25 01:11:39;;;;;;;0.50;0.20;;;;;;;18.01;100.00;99825.41;5051827;28;20833;-81
2022/06/25 01:14:10;;;;;;;0.50;0.20;;;;;;;17.98;100.00;99832.84;5043491;28;20772;-81
2022/06/25 01:16:37;;;;;;;0.50;0.20;;;;;;;17.93;100.00;99835.81;5044863;28;20481;-81
2022/06/25 01:19:09;;;;;;;0.50;0.20;;;;;;;17.62;100.00;99838.75;5042059;28;20447;-80
2022/06/25 01:21:36;;;;;;;0.50;0.20;;;;;;;17.88;100.00;99847.84;5036745;28;20527;-81
2022/06/25 01:24:05;;;;;;;0.50;0.20;;;;;;;17.81;100.00;99849.19;5025481;28;20451;-82
2022/06/25 01:26:36;;;;;;;0.50;0.20;;;;;;;17.53;100.00;99845.56;5027513;28;20480;-81
2022/06/25 01:29:03;;;;;;;0.50;0.20;;;;;;;17.44;100.00;99843.50;5034276;28;20863;-81
2022/06/25 01:31:30;;;;;;;0.50;0.20;;;;;;;17.27;100.00;99849.06;5036940;28;20448;-80
2022/06/25 01:33:57;;;;;;;0.50;0.20;;;;;;;17.43;100.00;99842.63;5040992;28;20435;-81
2022/06/25 01:36:24;;;;;;;0.50;0.20;;;;;;;17.47;100.00;99849.53;5034708;28;20464;-80
2022/06/25 01:38:51;;;;;;;0.50;0.20;;;;;;;17.44;100.00;99865.88;5049889;28;20526;-80
2022/06/25 01:41:18;;;;;;;0.50;0.20;;;;;;;17.53;100.00;99856.31;5038950;28;20545;-81
2022/06/25 01:43:45;;;;;;;0.50;0.20;;;;;;;17.39;100.00;99853.66;5036057;28;20452;-80
2022/06/25 01:46:14;;;;;;;0.50;0.20;;;;;;;17.24;100.00;99866.25;5027039;28;20871;-81
2022/06/25 01:48:40;;;;;;;0.50;0.20;;;;;;;17.21;100.00;99855.69;5037166;28;20494;-81
2022/06/25 01:51:07;;;;;;;0.50;0.20;;;;;;;17.16;100.00;99855.13;5038445;28;20526;-81
2022/06/25 01:53:34;;;;;;;0.80;0.73;;;;;;;17.22;100.00;99854.72;5039067;28;20456;-81
2022/06/25 01:56:01;;;;;;;0.50;0.20;;;;;;;16.81;100.00;99858.16;5025228;28;20473;-80
2022/06/25 01:58:27;;;;;;;0.50;0.20;;;;;;;16.69;100.00;99855.34;5039269;28;20552;-81
2022/06/25 02:00:54;;;;;;;0.50;0.20;;;;;;;16.70;100.00;99860.63;5024166;28;20877;-81
2022/06/25 02:03:20;;;;;;;0.50;0.20;;;;;;;16.71;100.00;99865.03;5023986;28;20440;-81
2022/06/25 02:05:59;;;;;;;0.50;0.20;;;;;;;16.79;100.00;99854.72;5036548;28;20873;-80
2022/06/25 02:08:35;;;;;;;0.50;0.20;;;;;;;17.06;100.00;99867.41;5039013;28;20558;-80
2022/06/25 02:11:07;;;;;;;0.50;0.20;;;;;;;16.94;100.00;99868.16;5022772;28;20539;-80
2022/06/25 02:13:34;;;;;;;0.50;0.20;;;;;;;16.92;100.00;99868.25;5037734;28;20423;-81
2022/06/25 02:16:00;;;;;;;0.50;0.20;;;;;;;17.02;100.00;99865.88;5038318;28;20472;-81
2022/06/25 02:18:28;;;;;;;0.50;0.20;;;;;;;17.06;100.00;99873.63;5029700;28;20501;-81
2022/06/25 02:20:59;;;;;;;0.50;0.20;;;;;;;17.01;100.00;99878.44;5042341;28;20506;-81
2022/06/25 02:23:26;;;;;;;0.50;0.20;;;;;;;16.78;100.00;99884.34;5034704;28;20429;-80
2022/06/25 02:25:53;;;;;;;0.50;0.20;;;;;;;16.81;100.00;99874.28;5018004;28;20486;-81
2022/06/25 02:28:19;;;;;;;0.50;0.20;;;;;;;17.00;100.00;99883.91;5026600;28;20451;-80
2022/06/25 02:30:46;;;;;;;0.50;0.20;;;;;;;16.86;100.00;99885.63;5053490;28;20518;-80
2022/06/25 02:33:14;;;;;;;0.50;0.20;;;;;;;16.82;100.00;99886.72;5047618;28;20458;-80
2022/06/25 02:35:42;;;;;;;0.60;0.60;;;;;;;16.65;100.00;99881.50;5048086;28;20464;-80
2022/06/25 02:38:10;;;;;;;0.50;0.20;;;;;;;16.14;100.00;99891.66;5035963;28;20475;-80
2022/06/25 02:40:37;;;;;;;0.50;0.20;;;;;;;16.51;100.00;99893.06;5035397;28;20806;-80
2022/06/25 02:43:05;;;;;;;0.50;0.20;;;;;;;16.63;100.00;99886.09;5047525;28;20507;-79
2022/06/25 02:45:31;;;;;;;0.50;0.20;;;;;;;16.45;100.00;99881.84;5040081;28;20473;-79
2022/06/25 02:47:58;;;;;;;0.50;0.30;;;;;;;16.35;100.00;99880.66;5041160;28;20790;-80
2022/06/25 02:50:24;;;;;;;0.50;0.20;;;;;;;16.43;100.00;99883.72;5044220;28;20573;-80
2022/06/25 02:52:52;;;;;;;0.50;0.20;;;;;;;16.65;100.00;99894.06;5042158;28;20456;-80
2022/06/25 02:55:19;;;;;;;0.50;0.20;;;;;;;16.77;100.00;99898.72;5037568;28;20976;-79
2022/06/25 03:00:30;;;;;;;0.50;0.20;;;;;;;16.58;100.00;99894.44;5046600;28;20453;-80
2022/06/25 03:02:56;;;;;;;0.50;0.20;;;;;;;16.62;100.00;99894.25;5041903;28;20970;-80
2022/06/25 03:05:23;;;;;;;0.60;0.20;;;;;;;16.74;100.00;99902.47;5043872;28;20475;-80
2022/06/25 03:07:49;;;;;;;0.50;0.20;;;;;;;16.77;100.00;99894.22;5050844;28;20453;-79
2022/06/25 03:10:16;;;;;;;0.50;0.20;;;;;;;16.77;100.00;99902.25;5045933;28;20866;-80
2022/06/25 03:12:42;;;;;;;0.50;0.20;;;;;;;16.71;100.00;99899.94;5045520;28;20459;-79
2022/06/25 03:15:09;;;;;;;0.50;0.20;;;;;;;16.74;100.00;99899.78;5043925;28;20478;-80
2022/06/25 03:17:35;;;;;;;0.50;0.20;;;;;;;16.74;100.00;99894.41;5046221;28;20457;-79
2022/06/25 03:20:03;;;;;;;0.50;0.20;;;;;;;16.70;100.00;99906.25;5044294;28;20453;-79
2022/06/25 03:22:29;;;;;;;0.50;0.20;;;;;;;16.64;100.00;99903.94;5047987;28;20559;-79
2022/06/25 03:24:56;;;;;;;0.50;0.20;;;;;;;16.52;100.00;99900.16;5043934;28;20514;-79
2022/06/25 03:27:22;;;;;;;0.50;0.20;;;;;;;16.49;100.00;99902.16;5037239;28;20468;-79
2022/06/25 03:29:49;;;;;;;0.50;0.20;;;;;;;16.20;100.00;99899.38;5035983;28;20491;-79
2022/06/25 03:32:15;;;;;;;0.50;0.20;;;;;;;16.00;100.00;99903.16;5037431;28;20450;-79
2022/06/25 03:34:42;;;;;;;0.50;0.20;;;;;;;15.90;100.00;99902.00;5043381;28;20892;-79
2022/06/25 03:37:11;;;;;;;0.87;0.87;;;;;;;16.02;100.00;99911.13;5049513;28;20438;-80
2022/06/25 03:39:38;;;;;;;0.50;0.20;;;;;;;15.76;100.00;99906.38;5044244;28;20439;-79
2022/06/25 03:42:05;;;;;;;0.50;0.20;;;;;;;16.21;100.00;99913.63;5049617;28;20460;-79
2022/06/25 03:44:31;;;;;;;0.50;0.20;;;;;;;16.09;100.00;99915.19;5044057;28;20450;-80
2022/06/25 03:46:58;;;;;;;0.50;0.20;;;;;;;16.27;100.00;99908.75;5039042;28;20446;-79
2022/06/25 03:49:24;;;;;;;0.50;0.20;;;;;;;16.09;100.00;99914.34;5041787;28;20911;-79
2022/06/25 03:51:51;;;;;;;0.50;0.20;;;;;;;16.10;100.00;99916.94;5046405;28;20464;-80
2022/06/25 03:54:17;;;;;;;0.50;0.20;;;;;;;16.11;100.00;99918.66;5033174;28;20462;-79
2022/06/25 03:56:44;;;;;;;0.50;0.20;;;;;;;16.38;100.00;99915.34;5046696;28;20774;-79
2022/06/25 03:59:11;;;;;;;0.50;0.20;;;;;;;16.57;100.00;99929.38;5050196;28;20958;-79
2022/06/25 04:01:38;;;;;;;0.50;0.20;;;;;;;16.41;100.00;99913.31;5039859;28;20533;-79
2022/06/25 04:04:04;;;;;;;0.50;0.20;;;;;;;16.50;100.00;99922.66;5041116;28;20465;-79
2022/06/25 04:06:31;;;;;;;0.50;0.20;;;;;;;16.64;100.00;99913.78;5040484;28;20906;-79
2022/06/25 04:08:57;;;;;;;0.50;0.20;;;;;;;16.76;100.00;99918.47;5044663;28;20494;-80
2022/06/25 04:11:24;;;;;;;0.50;0.20;;;;;;;16.51;100.00;99924.38;5042707;28;20544;-80
2022/06/25 04:13:50;;;;;;;0.50;0.20;;;;;;;16.78;100.00;99920.09;5055490;28;20827;-79
2022/06/25 04:16:17;;;;;;;0.50;0.20;;;;;;;16.87;100.00;99922.25;5052103;28;20468;-80
2022/06/25 04:18:43;;;;;;;0.50;0.20;;;;;;;16.49;100.00;99932.53;5050446;28;20454;-79
2022/06/25 04:21:10;;;;;;;0.50;0.20;;;;;;;16.41;100.00;99923.19;5044147;28;20448;-80
2022/06/25 04:23:36;;;;;;;0.60;0.20;;;;;;;16.57;100.00;99924.88;5044067;28;20459;-79
2022/06/25 04:26:03;;;;;;;0.60;0.20;;;;;;;16.53;100.00;99926.03;5050794;28;20478;-79
2022/06/25 04:31:15;;;;;;;0.60;0.20;;;;;;;17.62;100.00;99917.56;5050320;28;20451;-79
2022/06/25 04:33:41;;;;;;;0.60;0.20;;;;;;;18.26;100.00;99921.50;5040449;28;20458;-80
2022/06/25 04:36:08;;;;;;;0.60;0.30;;;;;;;19.07;100.00;99918.72;5057905;28;20480;-79
2022/06/25 04:38:34;;;;;;;0.60;0.20;;;;;;;19.77;100.00;99927.22;5044814;28;20469;-79
2022/06/25 04:41:01;;;;;;;0.60;0.20;;;;;;;20.26;100.00;99933.53;5048115;28;20970;-81
2022/06/25 04:43:27;;;;;;;0.60;0.20;;;;;;;20.52;100.00;99932.47;5041278;28;20997;-80
2022/06/25 04:45:54;;;;;;;0.70;0.20;;;;;;;20.88;99.80;99931.50;5045252;28;20856;-80
2022/06/25 04:48:20;;;;;;;1.27;1.17;;;;;;;20.78;100.00;99937.72;5050291;28;20547;-81
2022/06/25 04:50:47;;;;;;;0.60;0.30;;;;;;;20.83;100.00;99936.41;5039059;28;20487;-80
2022/06/25 04:53:14;;;;;;;0.70;0.30;;;;;;;21.18;100.00;99938.22;5051491;28;20456;-80
2022/06/25 04:55:41;;;;;;;0.70;0.27;;;;;;;21.14;99.65;99945.72;5046821;28;20651;-80
2022/06/25 04:58:08;;;;;;;0.60;0.30;;;;;;;21.64;98.12;99948.13;5053737;28;20467;-80
2022/06/25 05:00:34;;;;;;;0.60;0.20;;;;;;;21.60;97.05;99939.41;5047086;28;20456;-80
2022/06/25 05:03:07;;;;;;;0.60;0.20;;;;;;;21.93;95.82;99945.78;5049022;28;20434;-80
2022/06/25 05:05:33;;;;;;;0.60;0.30;;;;;;;21.65;96.59;99957.97;5056547;28;20480;-81
2022/06/25 05:08:00;;;;;;;0.50;0.20;;;;;;;22.47;94.04;99957.50;5044437;28;20485;-80
2022/06/25 05:10:26;;;;;;;0.50;0.20;;;;;;;22.17;95.58;99960.91;5056695;28;20472;-80
2022/06/25 05:13:12;;;;;;;0.50;0.20;;;;;;;22.39;94.03;99961.88;5037903;28;20462;-80
2022/06/25 05:15:39;;;;;;;0.50;0.20;;;;;;;22.41;94.53;99965.31;5037524;28;20980;-81
2022/06/25 05:18:08;;;;;;;0.50;0.30;;;;;;;22.90;91.75;99964.81;5040271;28;20462;-80
2022/06/25 05:20:42;;;;;;;0.50;0.20;;;;;;;22.33;93.44;99974.06;5050834;28;20474;-81
2022/06/25 05:23:09;;;;;;;0.50;0.20;;;;;;;22.07;93.94;99976.22;5048719;28;20539;-81
2022/06/25 05:25:36;;;;;;;0.50;0.20;;;;;;;22.57;92.49;99976.59;5049384;28;20569;-81
2022/06/25 05:28:03;;;;;;;0.50;0.20;;;;;;;23.00;90.77;99964.84;5037252;28;20448;-80
2022/06/25 05:30:30;;;;;;;0.70;0.30;;;;;;;22.81;91.46;99967.38;5036869;28;20487;-81
2022/06/25 05:32:57;;;;;;;0.73;0.30;;;;;;;22.85;91.56;99968.88;5037604;28;21064;-81
2022/06/25 05:35:24;;;;;;;5.60;1.50;;;;;;;22.77;92.22;99975.78;5036754;28;20487;-81
2022/06/25 05:37:51;;;;;;;0.90;0.30;;;;;;;23.08;89.98;99972.34;5041129;28;20526;-81
2022/06/25 05:40:18;;;;;;;0.70;0.30;;;;;;;23.43;89.63;99977.41;5049155;28;20816;-80
2022/06/25 05:42:45;;;;;;;0.87;0.43;;;;;;;23.74;88.53;99978.38;5046391;28;20458;-81
2022/06/25 05:45:11;;;;;;;1.37;0.30;;;;;;;23.53;88.86;99976.50;5042845;28;20933;-80
2022/06/25 05:47:38;;;;;;;0.60;0.23;;;;;;;23.52;88.49;99977.50;5040620;28;20456;-81
2022/06/25 05:50:06;;;;;;;0.40;0.20;;;;;;;23.16;89.34;99980.66;5039604;28;20574;-80
2022/06/25 05:52:32;;;;;;;0.47;0.20;;;;;;;23.59;90.52;99991.44;5049835;28;20451;-81
2022/06/25 05:54:59;;;;;;;0.60;0.23;;;;;;;23.83;88.19;99991.09;5048767;28;20478;-82
2022/06/25 05:57:25;;;;;;;1.13;0.30;;;;;;;23.55;88.18;99984.50;5035864;28;20487;-82
2022/06/25 05:59:52;;;;;;;1.43;0.30;;;;;;;24.08;87.30;99990.63;5032817;28;20455;-81
2022/06/25 06:02:18;;;;;;;2.23;0.30;;;;;;;23.85;89.79;100006.28;5035482;28;20509;-81
2022/06/25 06:04:45;;;;;;;1.70;0.30;;;;;;;23.77;91.91;99995.22;5037424;28;20991;-81
2022/06/25 06:07:12;;;;;;;0.80;0.30;;;;;;;23.68;91.76;99993.31;5034848;28;20446;-81
2022/06/25 06:09:38;;;;;;;26.97;0.50;;;;;;;23.89;92.50;99998.72;5033915;28;21014;-81
2022/06/25 06:12:05;;;;;;;0.70;0.30;;;;;;;23.96;92.22;99999.03;5037982;28;20541;-81
2022/06/25 06:14:31;;;;;;;0.80;0.50;;;;;;;23.34;96.30;100004.38;5041383;28;20469;-81
2022/06/25 06:16:58;;;;;;;0.70;0.30;;;;;;;23.00;96.70;100006.38;5042820;28;20423;-81
2022/06/25 06:19:24;;;;;;;0.70;0.30;;;;;;;22.94;96.37;100017.75;5035300;28;20993;-81
2022/06/25 06:21:51;;;;;;;0.70;0.30;;;;;;;23.01;95.31;100018.09;5045284;28;20554;-81
2022/06/25 06:24:17;;;;;;;0.60;0.30;;;;;;;22.77;93.50;100021.00;5035153;28;20801;-82
2022/06/25 06:26:44;;;;;;;0.70;0.30;;;;;;;22.80;94.02;100023.44;5036164;28;20465;-81
2022/06/25 06:29:11;;;;;;;119.87;4.20;;;;;;;22.92;93.32;100024.31;5031551;28;20777;-82
2022/06/25 06:31:37;;;;;;;112.30;2.87;;;;;;;22.70;93.61;100019.78;5026014;28;20452;-82
2022/06/25 06:34:04;;;;;;;0.70;0.30;;;;;;;23.49;92.38;100023.03;5018650;28;20449;-82
2022/06/25 06:36:33;;;;;;;0.77;0.30;;;;;;;23.43;91.81;100010.84;5026430;28;20472;-82
2022/06/25 06:39:00;;;;;;;0.70;0.30;;;;;;;23.87;88.84;100001.56;5032333;28;20437;-82
2022/06/25 06:41:26;;;;;;;0.70;0.30;;;;;;;24.15;87.57;100009.97;5038963;28;21074;-83
2022/06/25 06:43:53;;;;;;;0.90;0.90;;;;;;;24.23;85.50;99993.84;5030098;28;20547;-83
2022/06/25 06:46:20;;;;;;;0.60;0.43;;;;;;;24.23;86.58;100019.13;5033146;28;20474;-83
2022/06/25 06:48:46;;;;;;;0.60;0.30;;;;;;;24.39;88.82;100017.78;5020896;28;20431;-82
2022/06/25 06:51:13;;;;;;;0.50;0.30;;;;;;;24.59;83.72;100016.00;5028831;28;20571;-82
2022/06/25 06:53:39;;;;;;;0.60;0.30;;;;;;;24.38;87.21;100013.34;5032963;28;20437;-82
2022/06/25 06:56:06;;;;;;;0.50;0.23;;;;;;;24.45;85.33;100018.09;5035329;28;20988;-82
2022/06/25 06:58:32;;;;;;;1.70;0.87;;;;;;;24.43;87.93;100014.69;5036516;28;21111;-83
2022/06/25 07:00:59;;;;;;;0.70;0.30;;;;;;;24.74;83.91;100015.44;5035621;28;20806;-82
2022/06/25 07:03:26;;;;;;;0.60;0.20;;;;;;;24.49;86.12;100024.97;5029979;28;20460;-82
2022/06/25 07:05:55;;;;;;;0.70;0.43;;;;;;;24.77;85.36;100017.00;5042153;28;20555;-82
2022/06/25 07:08:22;;;;;;;0.60;0.30;;;;;;;24.58;86.76;100009.69;5033947;28;20509;-82
2022/06/25 07:10:48;;;;;;;0.50;0.23;;;;;;;24.09;83.20;100003.22;5020781;28;20492;-82
2022/06/25 07:13:15;;;;;;;0.80;0.30;;;;;;;24.83;84.75;100016.47;5022112;28;20513;-82
2022/06/25 07:15:41;;;;;;;0.60;0.60;;;;;;;24.64;84.10;100019.13;5023995;28;20465;-82
2022/06/25 07:18:08;;;;;;;0.50;0.30;;;;;;;24.20;84.84;100021.28;5041477;28;20452;-82
2022/06/25 07:20:34;;;;;;;0.50;0.20;;;;;;;24.37;84.76;100008.91;5036828;28;20483;-82
2022/06/25 07:23:01;;;;;;;0.50;0.30;;;;;;;24.00;87.08;100017.63;5032288;28;20904;-82
2022/06/25 07:25:28;;;;;;;0.50;0.20;;;;;;;24.20;85.40;100011.28;5028844;28;20487;-82
2022/06/25 07:27:54;;;;;;;0.50;0.30;;;;;;;23.74;85.85;100005.50;5035662;28;20478;-82
2022/06/25 07:30:21;;;;;;;0.67;0.67;;;;;;;23.84;86.81;100004.53;5034065;28;20975;-82
2022/06/25 07:32:47;;;;;;;0.50;0.27;;;;;;;24.04;84.51;100015.50;5043687;28;20447;-82
2022/06/25 07:35:14;;;;;;;0.50;0.30;;;;;;;24.19;84.51;100008.69;5040005;28;20483;-81
2022/06/25 07:37:42;;;;;;;0.50;0.20;;;;;;;24.43;82.69;100000.22;5037770;28;20433;-80
2022/06/25 07:40:09;;;;;;;0.50;0.20;;;;;;;24.41;85.34;100013.97;5029664;28;20537;-80
2022/06/25 07:42:35;;;;;;;0.70;0.30;;;;;;;24.48;85.28;99997.94;5036442;28;20487;-80
2022/06/25 07:45:03;;;;;;;0.70;0.30;;;;;;;24.49;86.06;100005.09;5038803;28;21071;-81
2022/06/25 07:47:36;;;;;;;0.60;0.20;;;;;;;24.68;84.13;100017.88;5032928;28;20437;-79
2022/06/25 07:52:49;;;;;;;0.60;0.30;;;;;;;24.61;81.96;100012.13;5044525;28;20450;-81
2022/06/25 07:55:19;;;;;;;0.60;0.30;;;;;;;24.22;82.68;100022.00;5033810;28;20481;-82
2022/06/25 07:57:46;;;;;;;0.60;0.30;;;;;;;24.64;85.58;100010.97;5048592;28;20429;-80
2022/06/25 08:00:12;;;;;;;1.20;0.30;;;;;;;24.30;83.63;100014.06;5037258;28;20915;-80
2022/06/25 08:02:40;;;;;;;0.80;0.30;;;;;;;24.35;81.77;100014.50;5033949;28;20441;-82
2022/06/25 08:05:07;;;;;;;1.23;1.07;;;;;;;24.24;82.93;100006.41;5039469;28;20934;-81
2022/06/25 08:07:33;;;;;;;0.70;0.30;;;;;;;25.01;81.49;100005.75;5030587;28;20535;-81
2022/06/25 08:10:01;;;;;;;0.80;0.50;;;;;;;24.93;84.89;100009.16;5033750;28;20462;-81
2022/06/25 08:12:27;;;;;;;1.43;1.33;;;;;;;24.67;83.32;100000.72;5047183;28;20441;-82
2022/06/25 08:14:54;;;;;;;0.70;0.40;;;;;;;24.41;81.82;100010.38;5033287;28;20478;-82
2022/06/25 08:17:20;;;;;;;0.60;0.47;;;;;;;24.50;80.55;100002.22;5047053;28;20497;-82
2022/06/25 08:19:47;;;;;;;0.60;0.30;;;;;;;24.95;82.01;100001.72;5042383;28;20422;-81
2022/06/25 08:22:13;;;;;;;0.50;0.27;;;;;;;25.03;79.94;99992.88;5051997;28;20425;-81
2022/06/25 08:24:40;;;;;;;2.33;1.53;;;;;;;24.75;80.79;100000.84;5041086;28;20496;-82
2022/06/25 08:27:06;;;;;;;10.63;0.40;;;;;;;24.94;79.58;100004.56;5038672;28;20432;-81
2022/06/25 08:29:33;;;;;;;0.50;0.20;;;;;;;24.91;80.29;99997.56;5049170;28;20466;-82
2022/06/25 08:31:59;;;;;;;0.60;0.30;;;;;;;25.26;80.41;100002.47;5053571;28;20488;-82
2022/06/25 08:34:26;;;;;;;0.40;0.30;;;;;;;25.45;78.32;100001.56;5040866;28;20508;-81
2022/06/25 08:36:52;;;;;;;0.50;0.23;;;;;;;25.52;78.19;99999.13;5037576;28;20864;-81
2022/06/25 08:39:19;;;;;;;0.40;0.20;;;;;;;25.67;78.56;99997.66;5042463;28;20855;-81
2022/06/25 08:41:46;;;;;;;0.50;0.20;;;;;;;25.19;76.56;99998.59;5039018;23;20595;-80
2022/06/25 08:44:12;;;;;;;0.50;0.30;;;;;;;25.71;75.02;99995.50;5017513;28;20424;-81
2022/06/25 08:46:39;;;;;;;0.50;0.30;;;;;;;25.46;76.34;99992.38;5017092;28;20511;-81
2022/06/25 08:49:07;;;;;;;0.50;0.30;;;;;;;25.31;76.60;99993.84;4993073;28;20488;-80
2022/06/25 08:51:34;;;;;;;0.50;0.20;;;;;;;24.46;78.72;99992.66;4989649;28;20539;-80
2022/06/25 08:54:02;;;;;;;0.53;0.40;;;;;;;24.77;79.47;99993.41;4994579;28;20427;-80
2022/06/25 08:56:34;;;;;;;0.50;0.20;;;;;;;25.08;76.33;99994.19;4988723;28;21000;-81
2022/06/25 08:59:01;;;;;;;0.60;0.30;;;;;;;25.01;77.70;99993.03;5002828;28;20424;-81
2022/06/25 09:01:27;;;;;;;0.60;0.30;;;;;;;25.02;77.27;99986.56;4996545;28;20445;-81
2022/06/25 09:03:54;;;;;;;0.70;0.30;;;;;;;25.05;79.08;99991.72;4996348;28;20429;-81
2022/06/25 09:06:21;;;;;;;0.60;0.30;;;;;;;25.26;76.80;99990.72;4989958;28;20541;-81
2022/06/25 09:09:11;;;;;;;0.50;0.30;;;;;;;25.19;78.64;99986.84;5003688;28;20447;-80
2022/06/25 09:11:51;;;;;;;0.50;0.30;;;;;;;25.52;75.82;99978.22;4993349;28;20543;-81
2022/06/25 09:14:27;;;;;;;0.50;0.20;;;;;;;25.81;76.14;99980.88;4999886;28;20432;-81
2022/06/25 09:17:04;;;;;;;1.30;0.30;;;;;;;26.26;72.69;99964.59;4978726;28;20448;-81
2022/06/25 09:19:32;;;;;;;1.20;0.30;;;;;;;25.18;75.89;99964.22;4982044;28;20481;-81
2022/06/25 09:22:00;;;;;;;0.60;0.30;;;;;;;25.69;77.44;99955.69;4988126;28;20491;-81
2022/06/25 09:24:46;;;;;;;0.60;0.30;;;;;;;26.08;73.43;99952.78;4992328;28;20492;-82
2022/06/25 09:27:38;;;;;;;0.60;0.30;;;;;;;26.34;72.77;99952.94;4985196;28;20475;-83
2022/06/25 09:30:11;;;;;;;0.60;0.30;;;;;;;26.36;72.85;99966.44;4999369;28;20451;-81
2022/06/25 09:32:54;;;;;;;0.60;0.30;;;;;;;26.07;72.45;99948.34;4997161;28;20428;-81
2022/06/25 09:35:33;;;;;;;0.60;0.30;;;;;;;26.50;71.73;99958.59;4987343;28;20429;-81
2022/06/25 09:38:06;;;;;;;0.70;0.60;;;;;;;26.66;73.29;99960.63;4990064;28;20466;-81
2022/06/25 09:40:34;;;;;;;0.60;0.30;;;;;;;26.56;69.45;99948.91;4994991;28;20449;-82
2022/06/25 09:43:15;;;;;;;0.60;0.30;;;;;;;26.21;71.93;99950.56;4978184;28;20482;-81
2022/06/25 09:45:44;;;;;;;0.60;0.40;;;;;;;26.38;69.55;99953.50;4988280;28;20780;-81
2022/06/25 09:48:22;;;;;;;0.70;0.50;;;;;;;25.52;72.59;99945.53;4983818;28;20825;-81
2022/06/25 09:51:07;;;;;;;0.50;0.30;;;;;;;26.23;73.22;99943.09;4989391;28;21032;-81
2022/06/25 09:53:36;;;;;;;0.50;0.30;;;;;;;26.34;71.98;99946.63;4975485;28;20447;-81
2022/06/25 09:56:03;;;;;;;1.93;1.83;;;;;;;26.12;72.92;99935.13;4985258;28;20861;-81
2022/06/25 09:58:31;;;;;;;0.50;0.30;;;;;;;26.73;71.07;99945.38;4999920;28;21000;-81
2022/06/25 10:00:58;;;;;;;0.60;0.30;;;;;;;26.43;72.19;99949.28;4994307;28;20555;-81
2022/06/25 10:03:26;;;;;;;0.50;0.23;;;;;;;26.72;70.80;99954.53;4988656;28;20799;-81
2022/06/25 10:05:54;;;;;;;0.50;0.30;;;;;;;26.74;70.25;99940.78;4991500;28;20461;-81
2022/06/25 10:08:22;;;;;;;0.50;0.23;;;;;;;27.64;69.24;99939.63;4963590;28;20463;-81
2022/06/25 10:10:48;;;;;;;0.40;0.23;;;;;;;27.18;67.58;99941.69;4978912;28;20486;-81
2022/06/25 10:13:15;;;;;;;0.50;0.30;;;;;;;26.15;70.04;99936.69;4977474;28;20439;-80
2022/06/25 10:15:44;;;;;;;0.50;0.30;;;;;;;26.51;71.01;99938.50;4992138;28;20462;-81
2022/06/25 10:18:11;;;;;;;0.60;0.30;;;;;;;26.60;69.19;99936.72;4984590;28;20467;-80
2022/06/25 10:20:39;;;;;;;0.50;0.23;;;;;;;26.53;68.62;99927.44;4984059;28;20429;-81
2022/06/25 10:23:08;;;;;;;0.50;0.30;;;;;;;25.74;70.37;99930.72;4987485;28;20443;-81
2022/06/25 10:25:36;;;;;;;0.50;0.30;;;;;;;25.51;69.51;99923.91;4992983;28;20446;-81
2022/06/25 10:28:25;;;;;;;0.50;0.30;;;;;;;26.08;68.28;99914.66;4988778;28;20508;-81
2022/06/25 10:30:53;;;;;;;0.60;0.30;;;;;;;26.37;68.23;99919.94;4978947;28;20814;-80
2022/06/25 10:33:26;;;;;;;0.60;0.47;;;;;;;26.74;68.55;99916.22;4985214;28;20497;-80
2022/06/25 10:35:56;;;;;;;0.50;0.20;;;;;;;27.09;67.79;99916.19;4977970;28;20512;-80
2022/06/25 10:38:25;;;;;;;0.50;0.30;;;;;;;27.08;67.62;99919.09;4992867;28;20491;-80
2022/06/25 10:43:49;;;;;;;0.50;0.30;;;;;;;25.66;70.82;99915.09;4990926;28;20439;-79
2022/06/25 10:46:42;;;;;;;0.50;0.20;;;;;;;25.63;69.63;99909.09;4982228;28;20429;-79
2022/06/25 10:49:12;;;;;;;0.50;0.20;;;;;;;26.15;69.33;99909.44;4979654;28;20488;-79
2022/06/25 10:51:38;;;;;;;0.47;0.20;;;;;;;26.51;69.03;99907.66;4984348;28;20472;-80
2022/06/25 10:54:25;;;;;;;0.50;0.20;;;;;;;26.74;69.36;99903.44;4992880;28;20464;-80
2022/06/25 10:56:57;;;;;;;0.50;0.23;;;;;;;27.06;66.40;99900.16;4972103;28;20467;-84
2022/06/25 10:59:41;;;;;;;0.50;0.20;;;;;;;27.34;65.07;99900.00;4994097;28;20807;-80
2022/06/25 11:02:10;;;;;;;0.50;0.30;;;;;;;27.43;64.67;99899.88;4991682;28;20519;-85
2022/06/25 11:04:37;;;;;;;0.50;0.30;;;;;;;27.55;63.38;99896.84;4992808;28;20890;-81
2022/06/25 11:07:08;;;;;;;0.40;0.20;;;;;;;27.56;66.60;99890.41;4990886;28;20528;-81
2022/06/25 11:09:35;;;;;;;0.60;0.30;;;;;;;27.51;65.55;99895.47;4988609;28;20524;-81
2022/06/25 11:12:07;;;;;;;0.50;0.20;;;;;;;27.62;65.38;99893.31;4993275;28;20493;-81
2022/06/25 11:14:33;;;;;;;0.50;0.30;;;;;;;28.01;63.52;99890.13;4980177;28;20427;-80
2022/06/25 11:17:08;;;;;;;0.50;0.20;;;;;;;27.40;62.47;99888.41;4991602;28;20473;-80
2022/06/25 11:19:40;;;;;;;0.47;0.23;;;;;;;28.22;62.43;99882.28;4977696;28;20436;-80
2022/06/25 11:22:07;;;;;;;0.50;0.30;;;;;;;28.01;61.55;99893.69;4979154;28;20458;-80
2022/06/25 11:24:34;;;;;;;0.50;0.30;;;;;;;27.68;64.45;99879.03;4979428;28;20500;-80
2022/06/25 11:29:53;;;;;;;1.30;0.30;;;;;;;26.22;64.71;99878.69;4990079;28;20925;-79
2022/06/25 11:32:23;;;;;;;1.10;0.30;;;;;;;26.27;65.07;99870.06;4992333;28;20482;-80
2022/06/25 11:34:58;;;;;;;0.90;0.30;;;;;;;27.00;64.08;99875.31;4990273;28;20431;-79
2022/06/25 11:37:26;;;;;;;1.07;0.30;;;;;;;26.77;63.83;99866.81;4967816;28;20560;-79
2022/06/25 11:39:53;;;;;;;0.80;0.40;;;;;;;27.14;63.34;99872.06;4992034;28;20544;-79
2022/06/25 11:42:19;;;;;;;0.60;0.30;;;;;;;27.10;62.97;99878.84;5001565;28;20531;-79
2022/06/25 11:44:51;;;;;;;0.60;0.30;;;;;;;27.04;64.79;99872.16;4988564;28;20432;-79
2022/06/25 11:47:27;;;;;;;0.60;0.30;;;;;;;27.95;63.85;99872.47;4980531;28;20887;-80
2022/06/25 11:49:54;;;;;;;0.53;0.30;;;;;;;28.04;62.15;99882.44;4988025;28;20458;-79
2022/06/25 11:52:23;;;;;;;1.03;0.30;;;;;;;28.22;60.27;99867.78;4988895;28;20500;-79